createdAt,value
2022-09-04T00:00:38.534Z,90.97
2022-09-04T00:01:44.941Z,90.77
2022-09-04T00:02:39.509Z,90.67
2022-09-04T00:03:38.624Z,90.57
2022-09-04T00:04:38.541Z,90.61
2022-09-04T00:05:38.500Z,90.71
2022-09-04T00:06:38.447Z,90.81
2022-09-04T00:07:38.449Z,90.92
2022-09-04T00:08:38.431Z,90.81
2022-09-04T00:09:38.414Z,90.81
2022-09-04T00:10:38.413Z,90.81
2022-09-04T00:11:38.410Z,91.02
2022-09-04T00:12:38.396Z,91.26
2022-09-04T00:13:38.373Z,91.26
2022-09-04T00:14:38.360Z,91.16
2022-09-04T00:15:38.349Z,91.36
2022-09-04T00:16:38.412Z,91.56
2022-09-04T00:17:38.337Z,91.67
2022-09-04T00:18:38.329Z,91.87
2022-09-04T00:19:38.308Z,92.02
2022-09-04T00:20:38.315Z,92.12
2022-09-04T00:21:38.272Z,92.12
2022-09-04T00:22:38.291Z,92.22
2022-09-04T00:23:38.273Z,92.12
2022-09-04T00:24:38.252Z,92.12
2022-09-04T00:25:38.249Z,92.42
2022-09-04T00:26:38.231Z,92.63
2022-09-04T00:27:38.234Z,92.58
2022-09-04T00:28:38.193Z,92.58
2022-09-04T00:29:38.195Z,92.28
2022-09-04T00:30:38.209Z,92.07
2022-09-04T00:31:38.176Z,91.97
2022-09-04T00:32:38.173Z,92.02
2022-09-04T00:33:38.163Z,92.02
2022-09-04T00:34:38.155Z,92.32
2022-09-04T00:35:38.140Z,92.42
2022-09-04T00:36:38.140Z,92.52
2022-09-04T00:37:38.109Z,92.42
2022-09-04T00:38:38.118Z,92.42
2022-09-04T00:39:38.120Z,92.22
2022-09-04T00:40:38.066Z,92.22
2022-09-04T00:41:38.065Z,92.42
2022-09-04T00:42:38.063Z,92.42
2022-09-04T00:43:38.028Z,92.47
2022-09-04T00:44:38.108Z,92.36
2022-09-04T00:45:38.037Z,92.32
2022-09-04T00:46:38.014Z,92.22
2022-09-04T00:47:37.987Z,92.12
2022-09-04T00:48:37.983Z,92.02
2022-09-04T00:49:37.967Z,91.82
2022-09-04T00:50:37.974Z,92.26
2022-09-04T00:51:37.950Z,92.77
2022-09-04T00:52:37.928Z,92.97
2022-09-04T00:53:37.928Z,93.07
2022-09-04T00:54:37.943Z,93.28
2022-09-04T00:55:37.929Z,93.28
2022-09-04T00:56:37.877Z,93.07
2022-09-04T00:57:37.879Z,93.02
2022-09-04T00:58:37.860Z,93.12
2022-09-04T00:59:37.859Z,93.02
2022-09-04T01:00:37.845Z,93.02
2022-09-04T01:01:38.874Z,93.02
2022-09-04T01:02:37.819Z,93.02
2022-09-04T01:03:37.801Z,93.02
2022-09-04T01:04:37.848Z,93.12
2022-09-04T01:05:37.789Z,93.12
2022-09-04T01:06:37.771Z,93.12
2022-09-04T01:07:37.779Z,93.32
2022-09-04T01:08:37.770Z,93.32
2022-09-04T01:09:37.739Z,93.43
2022-09-04T01:10:37.729Z,93.47
2022-09-04T01:11:37.722Z,93.52
2022-09-04T01:12:37.724Z,93.57
2022-09-04T01:13:37.701Z,93.67
2022-09-04T01:14:37.684Z,93.77
2022-09-04T01:15:37.692Z,93.87
2022-09-04T01:16:37.761Z,94.08
2022-09-04T01:17:37.661Z,94.18
2022-09-04T01:18:37.653Z,94.18
2022-09-04T01:19:37.623Z,94.04
2022-09-04T01:20:37.617Z,94.04
2022-09-04T01:21:37.603Z,93.83
2022-09-04T01:22:37.593Z,93.73
2022-09-04T01:23:37.573Z,93.63
2022-09-04T01:24:37.594Z,93.73
2022-09-04T01:25:37.567Z,93.73
2022-09-04T01:26:37.543Z,93.83
2022-09-04T01:27:37.538Z,93.93
2022-09-04T01:28:37.532Z,93.93
2022-09-04T01:29:37.535Z,93.93
2022-09-04T01:30:37.564Z,93.93
2022-09-04T01:31:37.554Z,94.04
2022-09-04T01:32:37.485Z,94.04
2022-09-04T01:33:37.467Z,94.13
2022-09-04T01:34:37.455Z,94.24
2022-09-04T01:35:37.444Z,94.24
2022-09-04T01:36:37.465Z,94.44
2022-09-04T01:37:37.416Z,94.59
2022-09-04T01:38:37.417Z,94.69
2022-09-04T01:39:37.435Z,94.69
2022-09-04T01:40:37.385Z,94.69
2022-09-04T01:41:38.580Z,94.69
2022-09-04T01:42:37.387Z,94.79
2022-09-04T01:43:37.355Z,94.79
2022-09-04T01:44:37.352Z,94.89
2022-09-04T01:45:37.359Z,94.89
2022-09-04T01:46:37.310Z,94.89
2022-09-04T01:47:37.308Z,94.89
2022-09-04T01:48:37.319Z,94.89
2022-09-04T01:49:37.309Z,94.69
2022-09-04T01:50:37.278Z,94.59
2022-09-04T01:51:37.249Z,94.48
2022-09-04T01:52:37.256Z,94.48
2022-09-04T01:53:37.297Z,94.59
2022-09-04T01:54:37.231Z,94.69
2022-09-04T01:55:37.208Z,94.59
2022-09-04T01:56:37.210Z,94.59
2022-09-04T01:57:37.192Z,94.69
2022-09-04T01:58:37.194Z,94.79
2022-09-04T01:59:37.209Z,95.00
2022-09-04T02:00:37.835Z,95.20
2022-09-04T02:01:37.151Z,95.20
2022-09-04T02:02:37.236Z,95.20
2022-09-04T02:03:37.115Z,95.09
2022-09-04T02:04:37.111Z,95.00
2022-09-04T02:05:37.126Z,95.00
2022-09-04T02:06:37.092Z,95.14
2022-09-04T02:07:37.090Z,95.24
2022-09-04T02:08:37.062Z,95.24
2022-09-04T02:09:37.052Z,95.14
2022-09-04T02:10:37.043Z,95.14
2022-09-04T02:11:37.062Z,95.14
2022-09-04T02:12:37.023Z,95.34
2022-09-04T02:13:37.004Z,95.65
2022-09-04T02:14:36.993Z,95.95
2022-09-04T02:15:37.001Z,96.06
2022-09-04T02:16:37.052Z,96.15
2022-09-04T02:17:36.994Z,96.26
2022-09-04T02:18:36.944Z,96.26
2022-09-04T02:19:36.934Z,96.15
2022-09-04T02:20:36.933Z,96.15
2022-09-04T02:21:36.916Z,96.15
2022-09-04T02:22:36.916Z,96.15
2022-09-04T02:23:36.905Z,96.06
2022-09-04T02:24:36.895Z,95.95
2022-09-04T02:25:36.897Z,96.06
2022-09-04T02:26:36.877Z,96.06
2022-09-04T02:27:36.856Z,95.85
2022-09-04T02:28:36.873Z,95.65
2022-09-04T02:29:36.830Z,95.54
2022-09-04T02:30:36.830Z,95.54
2022-09-04T02:31:36.835Z,95.65
2022-09-04T02:32:36.787Z,95.65
2022-09-04T02:33:36.770Z,95.79
2022-09-04T02:34:36.786Z,95.79
2022-09-04T02:35:36.758Z,95.79
2022-09-04T02:36:36.738Z,95.79
2022-09-04T02:37:36.727Z,95.69
2022-09-04T02:38:36.717Z,95.79
2022-09-04T02:39:36.747Z,95.79
2022-09-04T02:40:36.708Z,95.69
2022-09-04T02:41:36.696Z,95.49
2022-09-04T02:42:36.679Z,95.39
2022-09-04T02:43:36.659Z,95.29
2022-09-04T02:44:36.648Z,95.29
2022-09-04T02:45:36.686Z,95.39
2022-09-04T02:46:38.169Z,95.59
2022-09-04T02:47:36.608Z,95.79
2022-09-04T02:48:36.602Z,95.90
2022-09-04T02:49:36.589Z,96.00
2022-09-04T02:50:36.579Z,96.00
2022-09-04T02:51:36.592Z,96.10
2022-09-04T02:52:36.614Z,96.30
2022-09-04T02:53:36.545Z,96.30
2022-09-04T02:54:36.532Z,96.20
2022-09-04T02:55:36.520Z,96.20
2022-09-04T02:56:36.502Z,96.20
2022-09-04T02:57:36.521Z,96.10
2022-09-04T02:58:36.486Z,96.00
2022-09-04T02:59:36.483Z,95.79
2022-09-04T03:00:36.482Z,95.59
2022-09-04T03:01:36.476Z,95.49
2022-09-04T03:02:36.433Z,95.49
2022-09-04T03:03:36.457Z,95.49
2022-09-04T03:04:36.414Z,95.49
2022-09-04T03:05:36.433Z,95.49
2022-09-04T03:06:36.393Z,95.34
2022-09-04T03:07:36.375Z,95.34
2022-09-04T03:08:36.544Z,95.24
2022-09-04T03:09:36.374Z,95.14
2022-09-04T03:10:36.353Z,95.04
2022-09-04T03:11:36.338Z,94.93
2022-09-04T03:12:36.316Z,94.79
2022-09-04T03:13:36.304Z,94.69
2022-09-04T03:14:36.297Z,94.69
2022-09-04T03:15:36.317Z,94.79
2022-09-04T03:16:36.317Z,94.89
2022-09-04T03:17:36.255Z,94.69
2022-09-04T03:18:36.258Z,94.79
2022-09-04T03:19:36.256Z,94.79
2022-09-04T03:20:36.259Z,94.89
2022-09-04T03:21:36.217Z,95.00
2022-09-04T03:22:36.209Z,94.89
2022-09-04T03:23:36.202Z,94.89
2022-09-04T03:24:36.203Z,94.89
2022-09-04T03:25:36.165Z,94.79
2022-09-04T03:26:36.188Z,94.69
2022-09-04T03:27:36.147Z,94.69
2022-09-04T03:28:36.141Z,94.48
2022-09-04T03:29:36.127Z,94.48
2022-09-04T03:30:36.116Z,94.38
2022-09-04T03:31:36.158Z,94.38
2022-09-04T03:32:36.138Z,94.48
2022-09-04T03:33:36.080Z,94.48
2022-09-04T03:34:36.067Z,94.59
2022-09-04T03:35:36.056Z,94.48
2022-09-04T03:36:36.046Z,94.69
2022-09-04T03:37:36.029Z,94.69
2022-09-04T03:38:36.048Z,94.69
2022-09-04T03:39:36.097Z,94.69
2022-09-04T03:40:35.990Z,94.79
2022-09-04T03:41:35.990Z,94.69
2022-09-04T03:42:35.970Z,94.69
2022-09-04T03:43:35.993Z,94.69
2022-09-04T03:44:35.951Z,94.59
2022-09-04T03:45:35.931Z,94.59
2022-09-04T03:46:36.001Z,94.44
2022-09-04T03:47:35.919Z,94.34
2022-09-04T03:48:35.914Z,94.48
2022-09-04T03:49:35.920Z,94.38
2022-09-04T03:50:35.891Z,94.34
2022-09-04T03:51:35.881Z,94.38
2022-09-04T03:52:35.881Z,94.34
2022-09-04T03:53:35.848Z,94.34
2022-09-04T03:54:35.835Z,94.24
2022-09-04T03:55:35.877Z,94.13
2022-09-04T03:56:35.826Z,94.04
2022-09-04T03:57:35.807Z,94.13
2022-09-04T03:58:35.802Z,93.93
2022-09-04T03:59:37.901Z,93.93
2022-09-04T04:00:35.849Z,93.63
2022-09-04T04:01:35.757Z,93.43
2022-09-04T04:02:35.778Z,93.28
2022-09-04T04:03:35.746Z,93.28
2022-09-04T04:04:35.758Z,93.28
2022-09-04T04:05:35.713Z,93.28
2022-09-04T04:06:35.735Z,93.48
2022-09-04T04:07:35.686Z,93.59
2022-09-04T04:08:35.704Z,93.59
2022-09-04T04:09:35.664Z,93.59
2022-09-04T04:10:35.654Z,93.59
2022-09-04T04:11:39.069Z,93.59
2022-09-04T04:12:36.677Z,93.59
2022-09-04T04:13:35.619Z,93.68
2022-09-04T04:14:35.627Z,93.68
2022-09-04T04:15:35.628Z,93.79
2022-09-04T04:16:35.628Z,93.79
2022-09-04T04:17:35.575Z,93.68
2022-09-04T04:18:35.625Z,93.79
2022-09-04T04:19:35.567Z,93.89
2022-09-04T04:20:35.548Z,93.99
2022-09-04T04:21:35.528Z,93.64
2022-09-04T04:22:35.518Z,93.28
2022-09-04T04:23:35.551Z,92.97
2022-09-04T04:24:35.526Z,92.97
2022-09-04T04:25:35.487Z,92.97
2022-09-04T04:26:35.467Z,92.87
2022-09-04T04:27:35.488Z,92.77
2022-09-04T04:28:35.458Z,92.67
2022-09-04T04:29:35.440Z,92.67
2022-09-04T04:30:35.458Z,92.63
2022-09-04T04:31:35.464Z,92.63
2022-09-04T04:32:35.409Z,92.63
2022-09-04T04:33:35.389Z,92.63
2022-09-04T04:34:35.391Z,92.42
2022-09-04T04:35:35.398Z,92.32
2022-09-04T04:36:35.359Z,92.22
2022-09-04T04:37:35.349Z,92.02
2022-09-04T04:38:35.339Z,91.91
2022-09-04T04:39:35.394Z,91.91
2022-09-04T04:40:35.352Z,91.91
2022-09-04T04:41:35.332Z,92.06
2022-09-04T04:42:35.291Z,92.16
2022-09-04T04:43:35.280Z,92.36
2022-09-04T04:44:35.274Z,92.47
2022-09-04T04:45:35.259Z,92.57
2022-09-04T04:46:35.298Z,92.67
2022-09-04T04:47:35.251Z,92.77
2022-09-04T04:48:35.222Z,92.77
2022-09-04T04:49:35.210Z,92.77
2022-09-04T04:50:35.206Z,92.77
2022-09-04T04:51:35.193Z,92.77
2022-09-04T04:52:35.242Z,92.97
2022-09-04T04:53:35.202Z,93.18
2022-09-04T04:54:35.159Z,92.97
2022-09-04T04:55:35.141Z,92.72
2022-09-04T04:56:35.132Z,92.52
2022-09-04T04:57:35.123Z,92.32
2022-09-04T04:58:35.144Z,92.42
2022-09-04T04:59:35.113Z,92.52
2022-09-04T05:00:35.103Z,92.12
2022-09-04T05:01:35.211Z,92.02
2022-09-04T05:02:35.143Z,92.02
2022-09-04T05:03:35.088Z,92.02
2022-09-04T05:04:35.076Z,92.02
2022-09-04T05:05:35.048Z,91.91
2022-09-04T05:06:35.030Z,91.91
2022-09-04T05:07:35.022Z,91.91
2022-09-04T05:08:35.007Z,91.82
2022-09-04T05:09:34.988Z,91.71
2022-09-04T05:10:35.009Z,91.61
2022-09-04T05:11:34.982Z,91.71
2022-09-04T05:12:34.959Z,91.67
2022-09-04T05:13:34.939Z,91.77
2022-09-04T05:14:34.926Z,91.67
2022-09-04T05:15:43.794Z,91.67
2022-09-04T05:16:35.994Z,91.67
2022-09-04T05:17:34.899Z,91.67
2022-09-04T05:18:34.897Z,91.77
2022-09-04T05:19:34.878Z,91.77
2022-09-04T05:20:34.869Z,91.77
2022-09-04T05:21:34.850Z,91.87
2022-09-04T05:22:34.869Z,91.87
2022-09-04T05:23:34.829Z,91.87
2022-09-04T05:24:34.821Z,91.87
2022-09-04T05:25:34.807Z,91.97
2022-09-04T05:26:34.799Z,91.97
2022-09-04T05:27:34.818Z,92.07
2022-09-04T05:28:34.772Z,91.97
2022-09-04T05:29:34.791Z,91.97
2022-09-04T05:30:34.750Z,91.97
2022-09-04T05:31:34.774Z,92.07
2022-09-04T05:32:34.759Z,92.07
2022-09-04T05:33:34.747Z,92.07
2022-09-04T05:34:34.712Z,92.03
2022-09-04T05:35:35.172Z,92.13
2022-09-04T05:36:34.693Z,92.03
2022-09-04T05:37:34.671Z,91.93
2022-09-04T05:38:34.676Z,91.73
2022-09-04T05:39:34.779Z,91.48
2022-09-04T05:40:34.642Z,91.38
2022-09-04T05:41:34.630Z,91.38
2022-09-04T05:42:34.615Z,91.08
2022-09-04T05:43:34.608Z,90.97
2022-09-04T05:44:34.594Z,91.08
2022-09-04T05:45:34.642Z,91.42
2022-09-04T05:46:34.647Z,91.63
2022-09-04T05:47:34.563Z,91.68
2022-09-04T05:48:34.556Z,91.63
2022-09-04T05:49:34.532Z,91.63
2022-09-04T05:50:34.557Z,91.58
2022-09-04T05:51:36.353Z,91.58
2022-09-04T05:52:34.504Z,91.68
2022-09-04T05:53:34.494Z,91.48
2022-09-04T05:54:34.474Z,91.38
2022-09-04T05:55:34.473Z,91.34
2022-09-04T05:56:34.490Z,91.13
2022-09-04T05:57:34.450Z,91.13
2022-09-04T05:58:34.435Z,91.13
2022-09-04T05:59:34.434Z,91.03
2022-09-04T06:00:34.415Z,90.73
2022-09-04T06:01:34.491Z,90.62
2022-09-04T06:02:34.419Z,90.53
2022-09-04T06:03:34.390Z,90.73
2022-09-04T06:04:34.377Z,91.03
2022-09-04T06:05:34.359Z,91.24
2022-09-04T06:06:34.338Z,91.34
2022-09-04T06:07:34.788Z,91.44
2022-09-04T06:08:34.378Z,91.44
2022-09-04T06:09:34.403Z,91.19
2022-09-04T06:10:34.306Z,91.13
2022-09-04T06:11:34.313Z,91.24
2022-09-04T06:12:34.290Z,91.30
2022-09-04T06:13:34.407Z,91.34
2022-09-04T06:14:34.303Z,91.30
2022-09-04T06:15:34.239Z,91.30
2022-09-04T06:16:34.316Z,91.30
2022-09-04T06:17:34.229Z,91.30
2022-09-04T06:18:34.236Z,91.50
2022-09-04T06:19:34.289Z,91.50
2022-09-04T06:20:34.191Z,91.39
2022-09-04T06:21:34.210Z,91.35
2022-09-04T06:22:34.227Z,91.25
2022-09-04T06:23:34.202Z,91.25
2022-09-04T06:24:34.169Z,91.35
2022-09-04T06:25:34.180Z,91.25
2022-09-04T06:26:34.182Z,91.15
2022-09-04T06:27:35.446Z,91.05
2022-09-04T06:28:34.101Z,91.15
2022-09-04T06:29:34.103Z,91.20
2022-09-04T06:30:34.084Z,90.80
2022-09-04T06:31:34.133Z,90.70
2022-09-04T06:32:34.050Z,90.60
2022-09-04T06:33:34.051Z,90.30
2022-09-04T06:34:34.054Z,90.30
2022-09-04T06:35:34.055Z,90.30
2022-09-04T06:36:34.126Z,90.09
2022-09-04T06:37:34.036Z,89.95
2022-09-04T06:38:33.993Z,89.75
2022-09-04T06:39:34.100Z,89.85
2022-09-04T06:40:33.951Z,89.75
2022-09-04T06:41:34.052Z,89.75
2022-09-04T06:42:33.962Z,89.40
2022-09-04T06:43:33.923Z,89.50
2022-09-04T06:44:33.905Z,89.50
2022-09-04T06:45:33.922Z,89.40
2022-09-04T06:46:33.993Z,89.20
2022-09-04T06:47:33.935Z,89.16
2022-09-04T06:48:33.876Z,89.16
2022-09-04T06:49:33.845Z,89.36
2022-09-04T06:50:33.962Z,89.16
2022-09-04T06:51:33.819Z,89.46
2022-09-04T06:52:33.826Z,89.56
2022-09-04T06:53:33.787Z,89.76
2022-09-04T06:54:33.815Z,89.76
2022-09-04T06:55:33.777Z,89.46
2022-09-04T06:56:34.925Z,89.36
2022-09-04T06:57:33.787Z,89.12
2022-09-04T06:58:33.853Z,89.01
2022-09-04T06:59:33.720Z,88.92
2022-09-04T07:00:33.737Z,89.01
2022-09-04T07:01:33.794Z,88.81
2022-09-04T07:02:33.849Z,88.67
2022-09-04T07:03:33.721Z,88.67
2022-09-04T07:04:33.660Z,88.26
2022-09-04T07:05:33.710Z,87.82
2022-09-04T07:06:33.689Z,87.92
2022-09-04T07:07:33.709Z,88.02
2022-09-04T07:08:33.635Z,87.58
2022-09-04T07:09:33.610Z,87.07
2022-09-04T07:10:33.998Z,86.77
2022-09-04T07:11:33.630Z,86.27
2022-09-04T07:12:33.614Z,85.92
2022-09-04T07:13:33.572Z,85.42
2022-09-04T07:14:33.581Z,85.62
2022-09-04T07:15:33.629Z,85.31
2022-09-04T07:16:33.605Z,84.47
2022-09-04T07:17:33.543Z,84.37
2022-09-04T07:18:33.567Z,84.07
2022-09-04T07:19:33.694Z,83.83
2022-09-04T07:20:33.522Z,83.52
2022-09-04T07:21:33.502Z,83.32
2022-09-04T07:22:33.558Z,83.28
2022-09-04T07:23:34.204Z,83.59
2022-09-04T07:24:33.456Z,83.79
2022-09-04T07:25:33.474Z,83.69
2022-09-04T07:26:33.442Z,84.95
2022-09-04T07:27:33.453Z,85.66
2022-09-04T07:28:33.494Z,86.06
2022-09-04T07:29:33.417Z,85.72
2022-09-04T07:30:33.547Z,85.42
2022-09-04T07:31:33.433Z,84.81
2022-09-04T07:32:33.354Z,85.02
2022-09-04T07:33:33.376Z,84.71
2022-09-04T07:34:33.385Z,83.76
2022-09-04T07:35:33.336Z,83.47
2022-09-04T07:36:33.306Z,83.76
2022-09-04T07:37:33.385Z,83.37
2022-09-04T07:38:33.338Z,83.17
2022-09-04T07:39:33.466Z,83.47
2022-09-04T07:40:33.314Z,83.67
2022-09-04T07:41:33.288Z,83.33
2022-09-04T07:42:33.239Z,83.33
2022-09-04T07:43:33.263Z,83.63
2022-09-04T07:44:33.298Z,83.73
2022-09-04T07:45:33.228Z,84.53
2022-09-04T07:46:33.258Z,84.74
2022-09-04T07:47:33.245Z,85.74
2022-09-04T07:48:33.173Z,85.94
2022-09-04T07:49:33.182Z,86.04
2022-09-04T07:50:33.310Z,86.68
2022-09-04T07:51:33.201Z,86.88
2022-09-04T07:52:33.118Z,86.88
2022-09-04T07:53:33.112Z,87.59
2022-09-04T07:54:33.976Z,87.49
2022-09-04T07:55:33.152Z,87.79
2022-09-04T07:56:33.823Z,87.69
2022-09-04T07:57:33.159Z,87.79
2022-09-04T07:58:33.096Z,87.85
2022-09-04T07:59:33.066Z,87.75
2022-09-04T08:00:33.063Z,87.55
2022-09-04T08:01:36.996Z,87.21
2022-09-04T08:02:34.022Z,87.30
2022-09-04T08:03:33.066Z,87.21
2022-09-04T08:04:33.103Z,86.80
2022-09-04T08:05:33.090Z,86.60
2022-09-04T08:06:32.987Z,86.46
2022-09-04T08:07:33.195Z,86.36
2022-09-04T08:08:32.946Z,86.46
2022-09-04T08:09:32.976Z,86.02
2022-09-04T08:10:33.011Z,85.11
2022-09-04T08:11:32.898Z,84.21
2022-09-04T08:12:33.224Z,84.27
2022-09-04T08:13:32.915Z,84.27
2022-09-04T08:14:33.654Z,84.37
2022-09-04T08:15:35.213Z,83.07
2022-09-04T08:16:33.931Z,83.97
2022-09-04T08:17:32.901Z,83.77
2022-09-04T08:18:32.930Z,83.43
2022-09-04T08:19:34.330Z,83.67
2022-09-04T08:20:32.937Z,83.47
2022-09-04T08:21:32.842Z,83.97
2022-09-04T08:22:32.817Z,84.51
2022-09-04T08:23:33.157Z,84.91
2022-09-04T08:24:32.922Z,85.02
2022-09-04T08:25:32.927Z,84.77
2022-09-04T08:26:33.132Z,84.57
2022-09-04T08:27:32.816Z,84.27
2022-09-04T08:28:32.732Z,84.37
2022-09-04T08:29:32.682Z,84.31
2022-09-04T08:30:32.692Z,84.71
2022-09-04T08:31:32.660Z,84.91
2022-09-04T08:32:38.498Z,85.02
2022-09-04T08:33:33.632Z,85.56
2022-09-04T08:34:32.611Z,85.92
2022-09-04T08:35:32.609Z,85.02
2022-09-04T08:36:32.620Z,84.61
2022-09-04T08:37:32.592Z,85.11
2022-09-04T08:38:32.621Z,85.17
2022-09-04T08:39:32.596Z,84.57
2022-09-04T08:40:32.559Z,84.13
2022-09-04T08:41:32.542Z,83.33
2022-09-04T08:42:32.621Z,83.63
2022-09-04T08:43:33.137Z,83.63
2022-09-04T08:44:32.651Z,83.13
2022-09-04T08:45:32.513Z,83.97
2022-09-04T08:46:33.587Z,83.87
2022-09-04T08:47:32.839Z,84.37
2022-09-04T08:48:32.536Z,84.37
2022-09-04T08:49:32.505Z,83.43
2022-09-04T08:50:32.467Z,83.23
2022-09-04T08:51:32.735Z,82.99
2022-09-04T08:52:32.445Z,82.79
2022-09-04T08:53:32.445Z,81.68
2022-09-04T08:54:32.457Z,82.05
2022-09-04T08:55:32.464Z,81.45
2022-09-04T08:56:32.408Z,81.15
2022-09-04T08:57:32.368Z,81.55
2022-09-04T08:58:34.371Z,81.11
2022-09-04T08:59:32.350Z,81.01
2022-09-04T09:00:32.358Z,80.30
2022-09-04T09:01:32.399Z,80.71
2022-09-04T09:02:32.553Z,80.07
2022-09-04T09:03:32.312Z,79.67
2022-09-04T09:04:32.279Z,79.27
2022-09-04T09:05:32.299Z,78.93
2022-09-04T09:06:32.401Z,78.93
2022-09-04T09:07:32.249Z,78.93
2022-09-04T09:08:32.392Z,78.09
2022-09-04T09:09:32.240Z,77.86
2022-09-04T09:10:32.265Z,77.86
2022-09-04T09:11:32.466Z,76.86
2022-09-04T09:12:41.091Z,76.32
2022-09-04T09:13:33.413Z,75.92
2022-09-04T09:14:32.334Z,76.26
2022-09-04T09:15:32.202Z,76.42
2022-09-04T09:16:32.280Z,76.42
2022-09-04T09:17:34.525Z,75.42
2022-09-04T09:18:32.116Z,75.92
2022-09-04T09:19:32.109Z,76.02
2022-09-04T09:20:32.165Z,75.92
2022-09-04T09:21:32.097Z,76.45
2022-09-04T09:22:32.105Z,77.69
2022-09-04T09:23:32.558Z,77.45
2022-09-04T09:24:32.085Z,76.76
2022-09-04T09:25:32.215Z,76.22
2022-09-04T09:26:32.045Z,75.48
2022-09-04T09:27:32.017Z,74.98
2022-09-04T09:28:32.008Z,74.19
2022-09-04T09:29:32.086Z,74.08
2022-09-04T09:30:32.003Z,74.49
2022-09-04T09:31:31.976Z,74.58
2022-09-04T09:32:31.974Z,74.85
2022-09-04T09:33:32.029Z,74.05
2022-09-04T09:34:32.398Z,74.49
2022-09-04T09:35:32.185Z,73.85
2022-09-04T09:36:32.873Z,73.55
2022-09-04T09:37:32.248Z,73.45
2022-09-04T09:38:32.401Z,73.85
2022-09-04T09:39:33.050Z,73.42
2022-09-04T09:40:32.478Z,73.11
2022-09-04T09:41:33.082Z,73.22
2022-09-04T09:42:32.426Z,73.22
2022-09-04T09:43:32.423Z,73.08
2022-09-04T09:44:32.850Z,72.81
2022-09-04T09:45:32.424Z,73.02
2022-09-04T09:46:33.258Z,72.81
2022-09-04T09:47:31.872Z,72.58
2022-09-04T09:48:31.813Z,71.95
2022-09-04T09:49:31.798Z,71.72
2022-09-04T09:50:31.783Z,71.22
2022-09-04T09:51:31.752Z,70.72
2022-09-04T09:52:31.761Z,70.32
2022-09-04T09:53:31.714Z,70.56
2022-09-04T09:54:31.773Z,71.65
2022-09-04T09:55:31.730Z,71.62
2022-09-04T09:56:31.682Z,70.72
2022-09-04T09:57:33.874Z,70.39
2022-09-04T09:58:31.698Z,71.12
2022-09-04T09:59:31.675Z,71.51
2022-09-04T10:00:31.859Z,70.82
2022-09-04T10:01:31.709Z,70.92
2022-09-04T10:02:31.869Z,70.79
2022-09-04T10:03:31.588Z,70.68
2022-09-04T10:04:34.178Z,70.29
2022-09-04T10:05:31.588Z,69.99
2022-09-04T10:06:31.577Z,69.99
2022-09-04T10:07:31.556Z,69.79
2022-09-04T10:08:35.440Z,70.29
2022-09-04T10:09:31.568Z,70.09
2022-09-04T10:10:31.518Z,70.29
2022-09-04T10:11:31.518Z,70.29
2022-09-04T10:12:31.508Z,70.92
2022-09-04T10:13:31.500Z,70.92
2022-09-04T10:14:31.491Z,71.02
2022-09-04T10:15:31.507Z,71.22
2022-09-04T10:16:31.506Z,71.02
2022-09-04T10:17:31.493Z,70.89
2022-09-04T10:18:31.427Z,70.45
2022-09-04T10:19:31.429Z,69.66
2022-09-04T10:20:31.422Z,70.06
2022-09-04T10:21:31.441Z,69.96
2022-09-04T10:22:31.376Z,69.73
2022-09-04T10:23:31.361Z,69.23
2022-09-04T10:24:31.360Z,69.03
2022-09-04T10:25:31.331Z,69.03
2022-09-04T10:26:31.946Z,69.53
2022-09-04T10:27:31.346Z,70.26
2022-09-04T10:28:31.374Z,70.75
2022-09-04T10:29:31.294Z,70.75
2022-09-04T10:30:31.325Z,70.15
2022-09-04T10:31:31.264Z,70.22
2022-09-04T10:32:31.301Z,70.65
2022-09-04T10:33:31.256Z,70.06
2022-09-04T10:34:31.236Z,70.36
2022-09-04T10:35:31.214Z,70.95
2022-09-04T10:36:31.205Z,71.09
2022-09-04T10:37:31.239Z,72.08
2022-09-04T10:38:31.257Z,70.56
2022-09-04T10:39:31.277Z,70.65
2022-09-04T10:40:31.168Z,70.56
2022-09-04T10:41:31.146Z,70.22
2022-09-04T10:42:31.146Z,68.80
2022-09-04T10:43:31.147Z,68.80
2022-09-04T10:44:31.500Z,68.16
2022-09-04T10:45:31.150Z,67.97
2022-09-04T10:46:31.154Z,67.97
2022-09-04T10:47:31.119Z,68.30
2022-09-04T10:48:31.079Z,69.09
2022-09-04T10:49:31.059Z,68.60
2022-09-04T10:50:31.070Z,67.87
2022-09-04T10:51:31.039Z,67.67
2022-09-04T10:52:31.030Z,68.07
2022-09-04T10:53:31.349Z,67.67
2022-09-04T10:54:31.020Z,67.97
2022-09-04T10:55:31.013Z,67.87
2022-09-04T10:56:30.981Z,67.54
2022-09-04T10:57:30.973Z,67.24
2022-09-04T10:58:30.962Z,67.04
2022-09-04T10:59:30.972Z,66.64
2022-09-04T11:00:30.940Z,66.11
2022-09-04T11:01:31.022Z,66.11
2022-09-04T11:02:30.991Z,65.82
2022-09-04T11:03:30.904Z,65.32
2022-09-04T11:04:30.908Z,66.02
2022-09-04T11:05:30.886Z,66.85
2022-09-04T11:06:30.917Z,66.61
2022-09-04T11:07:30.863Z,65.82
2022-09-04T11:08:30.859Z,66.02
2022-09-04T11:09:30.839Z,65.89
2022-09-04T11:10:30.825Z,65.39
2022-09-04T11:11:30.826Z,65.59
2022-09-04T11:12:30.828Z,65.29
2022-09-04T11:13:30.804Z,65.59
2022-09-04T11:14:30.838Z,64.99
2022-09-04T11:15:30.795Z,64.86
2022-09-04T11:16:30.861Z,64.37
2022-09-04T11:17:30.747Z,64.59
2022-09-04T11:18:30.878Z,64.50
2022-09-04T11:19:30.727Z,64.56
2022-09-04T11:20:30.733Z,63.87
2022-09-04T11:21:30.713Z,63.87
2022-09-04T11:22:30.690Z,63.34
2022-09-04T11:23:30.712Z,62.62
2022-09-04T11:24:30.682Z,62.85
2022-09-04T11:25:30.653Z,63.28
2022-09-04T11:26:30.641Z,63.28
2022-09-04T11:27:30.681Z,62.78
2022-09-04T11:28:30.622Z,62.68
2022-09-04T11:29:30.632Z,62.58
2022-09-04T11:30:30.602Z,62.88
2022-09-04T11:31:30.662Z,62.78
2022-09-04T11:32:30.641Z,62.78
2022-09-04T11:33:30.581Z,62.78
2022-09-04T11:34:30.553Z,62.48
2022-09-04T11:35:30.575Z,61.79
2022-09-04T11:36:30.533Z,61.76
2022-09-04T11:37:30.524Z,61.76
2022-09-04T11:38:30.504Z,61.46
2022-09-04T11:39:30.583Z,61.13
2022-09-04T11:40:30.545Z,61.43
2022-09-04T11:41:30.545Z,61.26
2022-09-04T11:42:30.480Z,61.96
2022-09-04T11:43:30.474Z,61.83
2022-09-04T11:44:30.467Z,61.00
2022-09-04T11:45:30.485Z,60.38
2022-09-04T11:46:30.428Z,60.28
2022-09-04T11:47:30.438Z,60.58
2022-09-04T11:48:30.388Z,60.71
2022-09-04T11:49:30.380Z,60.94
2022-09-04T11:50:30.380Z,61.04
2022-09-04T11:51:30.442Z,60.31
2022-09-04T11:52:30.427Z,59.42
2022-09-04T11:53:30.339Z,60.17
2022-09-04T11:54:31.365Z,60.34
2022-09-04T11:55:30.339Z,59.65
2022-09-04T11:56:30.398Z,59.65
2022-09-04T11:57:30.313Z,59.55
2022-09-04T11:58:30.339Z,58.92
2022-09-04T11:59:30.271Z,58.53
2022-09-04T12:00:30.283Z,58.50
2022-09-04T12:01:30.260Z,58.67
2022-09-04T12:02:30.316Z,58.57
2022-09-04T12:03:30.460Z,58.80
2022-09-04T12:04:30.231Z,59.06
2022-09-04T12:05:30.237Z,59.36
2022-09-04T12:06:30.178Z,59.00
2022-09-04T12:07:36.699Z,59.84
2022-09-04T12:08:31.174Z,60.67
2022-09-04T12:09:30.177Z,61.19
2022-09-04T12:10:30.146Z,61.42
2022-09-04T12:11:30.142Z,61.52
2022-09-04T12:12:30.132Z,61.72
2022-09-04T12:13:30.482Z,61.91
2022-09-04T12:14:30.085Z,61.59
2022-09-04T12:15:30.154Z,60.89
2022-09-04T12:16:30.180Z,60.99
2022-09-04T12:17:30.063Z,61.10
2022-09-04T12:18:30.046Z,61.52
2022-09-04T12:19:30.054Z,61.82
2022-09-04T12:20:30.034Z,62.51
2022-09-04T12:21:30.058Z,61.82
2022-09-04T12:22:30.066Z,61.91
2022-09-04T12:23:29.990Z,61.69
2022-09-04T12:24:29.979Z,61.59
2022-09-04T12:25:29.986Z,61.59
2022-09-04T12:26:29.959Z,61.36
2022-09-04T12:27:29.982Z,60.96
2022-09-04T12:28:29.945Z,60.44
2022-09-04T12:29:29.920Z,60.54
2022-09-04T12:30:29.911Z,60.54
2022-09-04T12:31:29.983Z,59.94
2022-09-04T12:32:29.942Z,59.94
2022-09-04T12:33:29.902Z,59.75
2022-09-04T12:34:29.873Z,60.14
2022-09-04T12:35:31.735Z,60.24
2022-09-04T12:36:29.862Z,59.75
2022-09-04T12:37:29.827Z,59.94
2022-09-04T12:38:29.814Z,59.88
2022-09-04T12:39:29.879Z,60.07
2022-09-04T12:40:29.795Z,60.60
2022-09-04T12:41:29.783Z,60.67
2022-09-04T12:42:29.777Z,60.67
2022-09-04T12:43:29.767Z,60.37
2022-09-04T12:44:29.798Z,60.27
2022-09-04T12:45:29.822Z,60.27
2022-09-04T12:46:29.748Z,60.07
2022-09-04T12:47:31.354Z,60.17
2022-09-04T12:48:29.731Z,60.57
2022-09-04T12:49:29.688Z,60.96
2022-09-04T12:50:29.717Z,60.89
2022-09-04T12:51:29.669Z,60.99
2022-09-04T12:52:29.674Z,60.80